Time;durP1;ratioP1;P1;durP2;ratioP2;P2;SDS_P1;SDS_P2;PMS_P1;PMS_P2;Temp;Humidity;BMP_temperature;BMP_pressure;BME280_temperature;BME280_humidity;BME280_pressure;Samples;Min_cycle;Max_cycle;Signal;HPM_P1;HPM_P2
2023/11/18 00:00:20;;;;;;;17.05;10.02;;;2.40;99.90;;;;;;5070004;28;20056;-51
2023/11/18 00:02:46;;;;;;;17.63;8.45;;;2.50;99.90;;;;;;5071316;28;20032;-51
2023/11/18 00:05:12;;;;;;;14.48;7.10;;;2.50;99.90;;;;;;5073445;28;21099;-51
2023/11/18 00:07:38;;;;;;;13.00;7.18;;;2.40;99.90;;;;;;5071099;28;20035;-51
2023/11/18 00:10:04;;;;;;;12.77;7.70;;;2.40;99.90;;;;;;5075406;28;20095;-50
2023/11/18 00:12:30;;;;;;;11.75;7.43;;;2.40;99.90;;;;;;5072381;28;20025;-50
2023/11/18 00:14:56;;;;;;;12.68;7.05;;;2.20;99.90;;;;;;5073257;28;20221;-51
2023/11/18 00:17:22;;;;;;;11.95;6.75;;;2.20;99.90;;;;;;5071818;28;20033;-50
2023/11/18 00:19:48;;;;;;;11.27;7.20;;;2.20;99.90;;;;;;5072482;28;20448;-50
2023/11/18 00:22:13;;;;;;;19.77;8.02;;;2.10;99.90;;;;;;5072382;28;20020;-51
2023/11/18 00:24:39;;;;;;;10.85;7.20;;;2.10;99.90;;;;;;5071539;28;20088;-51
2023/11/18 00:27:07;;;;;;;10.88;6.80;;;2.10;99.90;;;;;;5073420;28;20031;-51
2023/11/18 00:29:33;;;;;;;12.68;6.47;;;2.00;99.90;;;;;;5071431;28;20088;-51
2023/11/18 00:32:00;;;;;;;11.80;6.68;;;2.00;99.90;;;;;;5073744;28;20545;-49
2023/11/18 00:34:25;;;;;;;15.20;7.90;;;1.90;99.90;;;;;;5071833;28;20086;-50
2023/11/18 00:36:51;;;;;;;12.43;6.43;;;2.00;99.90;;;;;;5070578;28;20025;-51
2023/11/18 00:39:17;;;;;;;15.68;7.53;;;1.80;99.90;;;;;;5071359;28;20012;-51
2023/11/18 00:41:43;;;;;;;12.65;7.10;;;1.80;99.90;;;;;;5072492;28;20507;-51
2023/11/18 00:44:09;;;;;;;15.63;8.30;;;1.80;99.90;;;;;;5080967;28;20042;-51
2023/11/18 00:46:36;;;;;;;14.02;7.15;;;1.80;99.90;;;;;;5080399;28;20247;-52
2023/11/18 00:49:02;;;;;;;17.27;8.65;;;1.80;99.90;;;;;;5069907;28;20500;-51
2023/11/18 00:51:27;;;;;;;14.55;7.47;;;1.90;99.90;;;;;;5070010;28;20115;-52
2023/11/18 00:53:54;;;;;;;10.98;7.03;;;1.90;99.90;;;;;;5069813;28;20094;-51
2023/11/18 00:56:21;;;;;;;14.60;7.63;;;1.90;99.90;;;;;;5069991;28;20075;-51
2023/11/18 00:58:47;;;;;;;12.45;7.18;;;1.90;99.90;;;;;;5070177;28;20103;-52
2023/11/18 01:01:13;;;;;;;15.70;7.47;;;1.80;99.90;;;;;;5069902;28;20029;-51
2023/11/18 01:03:38;;;;;;;14.82;7.13;;;1.90;99.90;;;;;;5069617;28;20078;-51
2023/11/18 01:06:06;;;;;;;11.85;7.75;;;1.90;99.90;;;;;;5069123;28;20033;-50
2023/11/18 01:08:32;;;;;;;11.40;7.25;;;1.90;99.90;;;;;;5069288;28;20025;-52
2023/11/18 01:10:57;;;;;;;11.20;7.45;;;2.10;99.90;;;;;;5069218;28;20340;-52
2023/11/18 01:13:23;;;;;;;11.20;7.00;;;2.10;99.90;;;;;;5068852;28;20111;-51
2023/11/18 01:15:49;;;;;;;14.52;8.13;;;2.10;99.90;;;;;;5068625;28;20477;-52
2023/11/18 01:18:15;;;;;;;12.93;8.15;;;2.20;99.90;;;;;;5069242;28;20056;-50
2023/11/18 01:20:40;;;;;;;15.32;7.18;;;2.20;99.90;;;;;;5069113;28;20074;-52
2023/11/18 01:23:06;;;;;;;12.00;6.90;;;2.30;99.90;;;;;;5068716;28;20082;-52
2023/11/18 01:25:31;;;;;;;12.07;6.72;;;2.30;99.90;;;;;;5068830;28;20437;-51
2023/11/18 01:27:57;;;;;;;12.10;6.57;;;2.40;99.90;;;;;;5068878;28;20309;-49
2023/11/18 01:30:23;;;;;;;10.82;6.05;;;2.40;99.90;;;;;;5068782;28;20057;-51
2023/11/18 01:32:49;;;;;;;10.93;6.65;;;2.50;99.90;;;;;;5067827;28;20028;-49
2023/11/18 01:35:15;;;;;;;10.18;6.38;;;2.50;99.90;;;;;;5067678;28;20032;-52
2023/11/18 01:37:41;;;;;;;11.25;7.07;;;2.50;99.90;;;;;;5067586;28;20509;-52
2023/11/18 01:40:07;;;;;;;10.80;6.50;;;2.50;99.90;;;;;;5068925;28;20028;-51
2023/11/18 01:42:33;;;;;;;14.52;7.05;;;2.50;99.90;;;;;;5068573;28;20099;-51
2023/11/18 01:45:03;;;;;;;13.02;6.95;;;2.50;99.90;;;;;;5069006;28;20390;-50
2023/11/18 01:47:32;;;;;;;14.38;7.85;;;2.50;99.90;;;;;;5068287;28;20024;-51
2023/11/18 01:49:59;;;;;;;10.23;6.47;;;2.50;99.90;;;;;;5068291;28;20052;-50
2023/11/18 01:52:26;;;;;;;10.48;6.82;;;2.60;99.90;;;;;;5068341;28;20025;-51
2023/11/18 01:54:54;;;;;;;11.27;6.70;;;2.50;99.90;;;;;;5068126;28;20497;-50
2023/11/18 01:57:21;;;;;;;10.60;6.45;;;2.50;99.90;;;;;;5067712;28;20379;-50
2023/11/18 01:59:47;;;;;;;8.88;5.82;;;2.50;99.90;;;;;;5068247;28;20055;-51
2023/11/18 02:02:13;;;;;;;9.35;6.15;;;2.50;99.90;;;;;;5068649;28;20078;-52
2023/11/18 02:04:39;;;;;;;10.68;6.22;;;2.40;99.90;;;;;;5068635;28;20031;-51
2023/11/18 02:07:08;;;;;;;10.82;6.20;;;2.50;99.90;;;;;;5067889;28;20025;-52
2023/11/18 02:09:35;;;;;;;11.87;6.63;;;2.40;99.90;;;;;;5068214;28;20020;-50
2023/11/18 02:12:09;;;;;;;8.48;6.03;;;2.50;99.90;;;;;;5067780;28;20358;-49
2023/11/18 02:14:39;;;;;;;10.35;6.60;;;2.50;99.90;;;;;;5068041;28;20029;-49
2023/11/18 02:17:09;;;;;;;11.48;7.38;;;2.50;99.90;;;;;;5059961;28;20110;-52
2023/11/18 02:19:35;;;;;;;11.65;7.45;;;2.60;99.90;;;;;;5066833;28;20029;-49
2023/11/18 02:22:01;;;;;;;11.75;6.70;;;2.70;99.90;;;;;;5067571;28;20028;-51
2023/11/18 02:24:36;;;;;;;12.35;7.20;;;2.70;99.90;;;;;;5068115;28;20517;-50
2023/11/18 02:27:02;;;;;;;13.00;6.82;;;2.80;99.90;;;;;;5067322;28;20508;-51
2023/11/18 02:29:35;;;;;;;12.90;7.43;;;2.90;99.90;;;;;;5068075;28;20435;-49
2023/11/18 02:32:16;;;;;;;10.25;7.03;;;2.90;99.90;;;;;;5066622;28;20029;-50
2023/11/18 02:34:48;;;;;;;;;;;3.00;99.90;;;;;;5067991;28;20060;-51
2023/11/18 02:37:16;;;;;;;12.63;6.82;;;3.00;99.90;;;;;;5066039;28;20014;-52
2023/11/18 02:39:45;;;;;;;11.02;6.38;;;3.10;99.90;;;;;;5067715;28;20051;-52
2023/11/18 02:42:12;;;;;;;9.43;6.93;;;3.10;99.90;;;;;;5067645;28;20028;-52
2023/11/18 02:44:38;;;;;;;11.95;7.15;;;3.20;99.90;;;;;;5067417;28;20096;-51
2023/11/18 02:47:05;;;;;;;9.30;6.20;;;3.20;99.90;;;;;;5067250;28;20167;-51
2023/11/18 02:49:31;;;;;;;8.27;5.80;;;3.20;99.90;;;;;;5067849;28;20529;-51
2023/11/18 02:51:57;;;;;;;11.38;6.72;;;3.30;99.90;;;;;;5067981;28;20359;-52
2023/11/18 02:54:23;;;;;;;11.20;6.80;;;3.30;99.90;;;;;;5067877;28;20032;-52
2023/11/18 02:56:49;;;;;;;11.35;7.03;;;3.30;99.90;;;;;;5067497;28;20023;-53
2023/11/18 02:59:16;;;;;;;8.50;5.47;;;3.30;99.90;;;;;;5067202;28;20052;-52
2023/11/18 03:01:41;;;;;;;11.35;7.00;;;3.30;99.90;;;;;;5067210;28;20024;-53
2023/11/18 03:04:08;;;;;;;9.20;5.90;;;3.40;99.90;;;;;;5065521;28;20168;-51
2023/11/18 03:06:35;;;;;;;8.70;5.93;;;3.30;99.90;;;;;;5065350;28;20028;-52
2023/11/18 03:09:01;;;;;;;10.43;6.65;;;3.30;99.90;;;;;;5067103;28;20414;-53
2023/11/18 03:11:29;;;;;;;10.52;5.65;;;3.40;99.90;;;;;;5067587;28;20054;-53
2023/11/18 03:13:56;;;;;;;8.45;5.68;;;3.40;99.90;;;;;;5066736;28;20434;-52
2023/11/18 03:16:22;;;;;;;11.35;6.43;;;3.40;99.90;;;;;;5066673;28;20021;-53
2023/11/18 03:18:48;;;;;;;10.65;6.38;;;3.40;99.90;;;;;;5066991;28;20700;-53
2023/11/18 03:21:14;;;;;;;12.23;5.97;;;3.40;99.90;;;;;;5065541;28;20070;-53
2023/11/18 03:23:41;;;;;;;14.27;5.95;;;3.40;99.90;;;;;;5067638;28;20025;-52
2023/11/18 03:26:07;;;;;;;8.90;5.68;;;3.40;99.90;;;;;;5067118;28;20083;-51
2023/11/18 03:28:33;;;;;;;7.90;4.80;;;3.40;99.90;;;;;;5067695;28;20025;-52
2023/11/18 03:30:59;;;;;;;8.20;5.32;;;3.40;99.90;;;;;;5067400;28;20435;-53
2023/11/18 03:33:24;;;;;;;13.20;6.13;;;3.40;99.90;;;;;;5066419;28;20031;-52
2023/11/18 03:35:50;;;;;;;9.65;5.68;;;3.40;99.90;;;;;;5068829;28;20040;-53
2023/11/18 03:38:19;;;;;;;9.85;5.32;;;3.40;99.90;;;;;;5071161;28;20086;-52
2023/11/18 03:40:46;;;;;;;11.35;5.57;;;3.40;99.90;;;;;;5071127;28;20017;-53
2023/11/18 03:43:13;;;;;;;12.02;6.43;;;3.40;99.90;;;;;;5071412;28;20455;-52
2023/11/18 03:45:39;;;;;;;9.65;5.70;;;3.40;99.90;;;;;;5071164;28;20039;-52
2023/11/18 03:48:06;;;;;;;8.75;5.07;;;3.40;99.90;;;;;;5071104;28;20016;-54
2023/11/18 03:50:32;;;;;;;11.23;6.10;;;3.40;99.90;;;;;;5071011;28;20128;-52
2023/11/18 03:52:58;;;;;;;8.95;5.60;;;3.40;99.90;;;;;;5070661;28;20520;-53
2023/11/18 03:55:25;;;;;;;10.30;5.30;;;3.40;99.90;;;;;;5070673;28;20052;-52
2023/11/18 03:57:50;;;;;;;9.75;5.30;;;3.40;99.90;;;;;;5070627;28;20089;-51
2023/11/18 04:00:16;;;;;;;15.73;6.50;;;3.40;99.90;;;;;;5070889;28;20062;-52
2023/11/18 04:02:42;;;;;;;13.82;6.60;;;3.40;99.90;;;;;;5070968;28;20013;-53
2023/11/18 04:05:08;;;;;;;10.27;6.05;;;3.40;99.90;;;;;;5070611;28;20059;-52
2023/11/18 04:07:34;;;;;;;7.63;5.43;;;3.50;99.90;;;;;;5070484;28;20024;-50
2023/11/18 04:10:05;;;;;;;8.57;5.85;;;3.40;99.90;;;;;;5070497;28;20032;-53
2023/11/18 04:12:31;;;;;;;17.05;6.32;;;3.40;99.90;;;;;;5070775;28;20310;-51
2023/11/18 04:14:56;;;;;;;9.77;5.85;;;3.50;99.90;;;;;;5068866;28;20027;-52
2023/11/18 04:17:22;;;;;;;9.25;5.90;;;3.50;99.90;;;;;;5070450;28;20017;-52
2023/11/18 04:19:48;;;;;;;11.07;5.85;;;3.40;99.90;;;;;;5070670;28;20025;-52
2023/11/18 04:22:13;;;;;;;11.23;6.10;;;3.40;99.90;;;;;;5070531;28;20071;-52
2023/11/18 04:24:39;;;;;;;9.32;6.13;;;3.40;99.90;;;;;;5070221;28;20089;-53
2023/11/18 04:27:04;;;;;;;9.32;6.15;;;3.40;99.90;;;;;;5069540;28;20192;-52
2023/11/18 04:29:30;;;;;;;11.82;6.22;;;3.40;99.90;;;;;;5070002;28;20525;-52
2023/11/18 04:31:55;;;;;;;13.20;6.38;;;3.40;99.90;;;;;;5069851;28;20031;-51
2023/11/18 04:34:21;;;;;;;8.93;5.68;;;3.30;99.90;;;;;;5069946;28;20562;-52
2023/11/18 04:36:47;;;;;;;10.45;5.88;;;3.30;99.90;;;;;;5069176;28;20031;-51
2023/11/18 04:39:12;;;;;;;7.75;4.82;;;3.30;99.90;;;;;;5070145;28;20044;-52
2023/11/18 04:41:38;;;;;;;8.75;4.80;;;3.20;99.90;;;;;;5070165;28;20028;-52
2023/11/18 04:44:04;;;;;;;10.73;6.35;;;3.10;99.90;;;;;;5069251;28;20024;-53
2023/11/18 04:46:29;;;;;;;9.02;5.40;;;3.00;99.90;;;;;;5064484;28;20025;-51
2023/11/18 04:48:56;;;;;;;12.73;5.90;;;2.90;99.90;;;;;;5061453;28;20021;-50
2023/11/18 04:51:22;;;;;;;8.02;4.90;;;2.90;99.90;;;;;;5064506;28;20020;-51
2023/11/18 04:53:48;;;;;;;11.73;6.18;;;2.80;99.90;;;;;;5067749;28;20024;-51
2023/11/18 04:56:16;;;;;;;9.63;5.65;;;2.70;99.90;;;;;;5069155;28;20497;-51
2023/11/18 04:58:42;;;;;;;11.85;5.90;;;2.60;99.90;;;;;;5069859;28;20017;-52
2023/11/18 05:01:08;;;;;;;11.15;5.47;;;2.70;99.90;;;;;;5069905;28;20343;-52
2023/11/18 05:03:34;;;;;;;9.82;5.25;;;2.60;99.90;;;;;;5069670;28;20510;-51
2023/11/18 05:06:00;;;;;;;10.48;6.35;;;2.50;99.90;;;;;;5069223;28;20029;-52
2023/11/18 05:08:26;;;;;;;10.75;6.60;;;2.50;99.90;;;;;;5069241;28;20055;-52
2023/11/18 05:10:51;;;;;;;10.65;5.80;;;2.50;99.90;;;;;;5069197;28;20397;-52
2023/11/18 05:13:18;;;;;;;11.82;7.03;;;2.40;99.90;;;;;;5069503;28;20033;-52
2023/11/18 05:15:47;;;;;;;18.02;9.75;;;2.40;99.90;;;;;;5068792;28;20414;-54
2023/11/18 05:18:14;;;;;;;15.18;8.98;;;2.40;99.90;;;;;;5069125;28;20039;-52
2023/11/18 05:20:43;;;;;;;15.65;8.68;;;2.50;99.90;;;;;;5069144;28;20079;-52
2023/11/18 05:23:12;;;;;;;12.07;7.32;;;2.50;99.90;;;;;;5068201;28;20174;-52
2023/11/18 05:25:43;;;;;;;11.85;6.70;;;2.50;99.90;;;;;;5068916;28;20072;-51
2023/11/18 05:28:08;;;;;;;9.43;5.85;;;2.40;99.90;;;;;;5069056;28;20025;-51
2023/11/18 05:30:40;;;;;;;15.68;7.22;;;2.40;99.90;;;;;;5067489;28;20138;-52
2023/11/18 05:33:06;;;;;;;16.45;6.57;;;2.40;99.90;;;;;;5069350;28;20415;-53
2023/11/18 05:35:33;;;;;;;9.93;6.20;;;2.30;99.90;;;;;;5068606;28;20103;-50
2023/11/18 05:37:59;;;;;;;11.88;6.35;;;2.20;99.90;;;;;;5068324;28;20036;-51
2023/11/18 05:40:27;;;;;;;12.20;6.47;;;2.20;99.90;;;;;;5068772;28;20054;-51
2023/11/18 05:42:55;;;;;;;13.85;6.07;;;2.10;99.90;;;;;;5068600;28;20021;-51
2023/11/18 05:45:31;;;;;;;11.90;6.35;;;2.00;99.90;;;;;;5068595;28;20100;-51
2023/11/18 05:47:58;;;;;;;13.52;6.95;;;2.00;99.90;;;;;;5068240;28;20029;-52
2023/11/18 05:50:26;;;;;;;13.88;7.13;;;2.00;99.90;;;;;;5068152;28;20025;-52
2023/11/18 05:52:54;;;;;;;10.80;5.93;;;2.00;99.90;;;;;;5068703;28;20021;-51
2023/11/18 05:55:20;;;;;;;11.18;5.75;;;1.90;99.90;;;;;;5068254;28;20074;-51
2023/11/18 05:57:47;;;;;;;10.63;6.68;;;1.80;99.90;;;;;;5067905;28;20032;-52
2023/11/18 06:00:18;;;;;;;14.63;6.95;;;1.70;99.90;;;;;;5067067;28;20027;-51
2023/11/18 06:02:44;;;;;;;14.48;6.85;;;1.80;99.90;;;;;;5068095;28;20021;-52
2023/11/18 06:05:12;;;;;;;15.63;6.93;;;1.70;99.90;;;;;;5066982;28;20493;-49
2023/11/18 06:07:39;;;;;;;16.55;6.03;;;1.70;99.90;;;;;;5066759;28;20031;-51
2023/11/18 06:10:06;;;;;;;11.63;6.68;;;1.70;99.90;;;;;;5067882;28;20016;-50
2023/11/18 06:12:32;;;;;;;13.40;7.45;;;1.60;99.90;;;;;;5065526;28;20048;-51
2023/11/18 06:14:58;;;;;;;16.65;6.60;;;1.60;99.90;;;;;;5066982;28;20064;-51
2023/11/18 06:17:24;;;;;;;9.90;5.40;;;1.60;99.90;;;;;;5068023;28;20090;-52
2023/11/18 06:19:50;;;;;;;10.30;5.63;;;1.50;99.90;;;;;;5066660;28;20200;-51
2023/11/18 06:22:15;;;;;;;8.63;5.60;;;1.50;99.90;;;;;;5068385;28;20032;-52
2023/11/18 06:24:42;;;;;;;13.20;6.95;;;1.40;99.90;;;;;;5066870;28;20020;-51
2023/11/18 06:27:08;;;;;;;14.70;7.38;;;1.40;99.90;;;;;;5065049;28;20447;-51
2023/11/18 06:29:34;;;;;;;17.10;8.60;;;1.50;99.90;;;;;;5068513;28;20114;-51
2023/11/18 06:32:00;;;;;;;11.73;7.05;;;1.60;99.90;;;;;;5066641;28;20020;-51
2023/11/18 06:34:26;;;;;;;12.20;6.93;;;1.50;99.90;;;;;;5068347;28;20099;-52
2023/11/18 06:36:53;;;;;;;11.57;6.97;;;1.50;99.90;;;;;;5065165;28;20078;-51
2023/11/18 06:39:19;;;;;;;17.00;9.82;;;1.50;99.90;;;;;;5067294;28;20054;-51
2023/11/18 06:41:51;;;;;;;13.35;8.25;;;1.60;99.90;;;;;;5068066;28;20021;-52
2023/11/18 06:44:23;;;;;;;15.98;8.52;;;1.60;99.90;;;;;;5066259;28;20024;-51
2023/11/18 06:46:50;;;;;;;15.38;7.90;;;1.60;99.90;;;;;;5067211;28;20112;-52
2023/11/18 06:49:16;;;;;;;18.42;8.65;;;1.60;99.90;;;;;;5067834;28;20020;-51
2023/11/18 06:51:43;;;;;;;15.45;8.27;;;1.70;99.90;;;;;;5066492;28;20020;-51
2023/11/18 06:54:09;;;;;;;15.68;8.73;;;1.70;99.90;;;;;;5066291;28;20082;-51
2023/11/18 06:56:38;;;;;;;21.50;9.90;;;1.80;99.90;;;;;;5067642;28;20478;-51
2023/11/18 06:59:10;;;;;;;15.52;8.60;;;1.80;99.90;;;;;;5067952;28;20088;-52
2023/11/18 07:01:40;;;;;;;19.52;9.32;;;1.70;99.90;;;;;;5059257;28;20028;-52
2023/11/18 07:04:09;;;;;;;17.98;9.63;;;1.80;99.90;;;;;;5067144;28;20035;-52
2023/11/18 07:06:38;;;;;;;16.58;10.25;;;1.90;99.90;;;;;;5067228;28;20393;-52
2023/11/18 07:09:12;;;;;;;20.83;9.38;;;1.90;99.90;;;;;;5068047;28;20100;-52
2023/11/18 07:11:37;;;;;;;20.17;9.98;;;1.90;99.90;;;;;;5070826;28;20036;-51
2023/11/18 07:14:03;;;;;;;18.40;10.20;;;2.00;99.90;;;;;;5063314;28;20017;-51
2023/11/18 07:16:28;;;;;;;19.45;9.52;;;2.00;99.90;;;;;;5071210;28;20501;-51
2023/11/18 07:18:54;;;;;;;18.13;9.07;;;2.00;99.90;;;;;;5071436;28;20094;-51
2023/11/18 07:21:20;;;;;;;18.58;9.15;;;2.10;99.90;;;;;;5071402;28;20082;-52
2023/11/18 07:23:46;;;;;;;14.65;8.07;;;2.20;99.90;;;;;;5071593;28;20020;-51
2023/11/18 07:26:12;;;;;;;20.85;9.55;;;2.20;99.90;;;;;;5071258;28;20024;-52
2023/11/18 07:28:38;;;;;;;18.88;10.05;;;2.30;99.90;;;;;;5071380;28;20024;-50
2023/11/18 07:31:04;;;;;;;18.02;9.82;;;2.30;99.90;;;;;;5071418;28;20398;-50
2023/11/18 07:33:32;;;;;;;17.65;9.55;;;2.30;99.90;;;;;;5071589;28;20025;-49
2023/11/18 07:35:58;;;;;;;13.45;8.10;;;2.30;99.90;;;;;;5070469;28;20108;-51
2023/11/18 07:38:24;;;;;;;23.20;11.00;;;2.30;99.90;;;;;;5071301;28;20048;-51
2023/11/18 07:40:52;;;;;;;20.40;10.38;;;2.40;99.90;;;;;;5071234;28;20477;-51
2023/11/18 07:43:21;;;;;;;15.88;9.20;;;2.50;99.90;;;;;;5070807;28;20448;-52
2023/11/18 07:45:49;;;;;;;18.33;9.43;;;2.50;99.90;;;;;;5067996;28;20028;-52
2023/11/18 07:48:17;;;;;;;19.52;8.98;;;2.50;99.90;;;;;;5069004;28;20032;-50
2023/11/18 07:50:47;;;;;;;17.25;9.75;;;2.60;99.90;;;;;;5067898;28;20400;-51
2023/11/18 07:53:13;;;;;;;17.88;10.15;;;2.70;99.90;;;;;;5068125;28;20104;-51
2023/11/18 07:55:39;;;;;;;15.00;8.95;;;2.90;99.90;;;;;;5068775;28;20029;-52
2023/11/18 07:58:10;;;;;;;29.10;10.38;;;2.90;99.90;;;;;;5070630;28;20386;-51
2023/11/18 08:00:40;;;;;;;14.10;8.10;;;3.00;99.90;;;;;;5069248;28;20025;-52
2023/11/18 08:03:11;;;;;;;14.30;9.70;;;3.00;99.90;;;;;;5070861;28;20016;-54
2023/11/18 08:05:46;;;;;;;18.15;10.57;;;3.20;99.90;;;;;;5070223;28;20031;-54
2023/11/18 08:08:13;;;;;;;15.27;9.57;;;3.30;99.90;;;;;;5068053;28;20024;-54
2023/11/18 08:10:39;;;;;;;15.88;9.95;;;3.50;99.90;;;;;;5070224;28;20032;-55
2023/11/18 08:13:07;;;;;;;17.33;9.50;;;3.70;99.90;;;;;;5070253;28;20035;-55
2023/11/18 08:15:34;;;;;;;14.27;8.73;;;3.80;99.90;;;;;;5070180;28;20020;-55
2023/11/18 08:18:00;;;;;;;16.38;9.20;;;3.90;99.90;;;;;;5069442;28;20032;-55
2023/11/18 08:20:25;;;;;;;15.50;9.18;;;3.90;99.90;;;;;;5070254;28;20021;-55
2023/11/18 08:22:51;;;;;;;12.65;8.10;;;4.10;99.90;;;;;;5070086;28;20109;-55
2023/11/18 08:25:17;;;;;;;12.35;7.78;;;4.10;99.90;;;;;;5070918;28;20036;-54
2023/11/18 08:27:45;;;;;;;14.65;8.85;;;4.20;99.90;;;;;;5070177;28;20020;-55
2023/11/18 08:30:12;;;;;;;19.60;9.10;;;4.30;99.90;;;;;;5070434;28;20099;-55
2023/11/18 08:32:39;;;;;;;11.65;7.25;;;4.40;99.90;;;;;;5070226;28;20044;-54
2023/11/18 08:35:08;;;;;;;9.88;6.97;;;4.40;99.90;;;;;;5070340;28;20051;-54
2023/11/18 08:37:37;;;;;;;14.40;8.73;;;4.50;99.90;;;;;;5069944;28;20040;-54
2023/11/18 08:40:20;;;;;;;15.32;7.60;;;4.50;99.90;;;;;;5069974;28;20081;-54
2023/11/18 08:42:50;;;;;;;14.43;9.13;;;4.60;99.90;;;;;;5059728;28;20394;-54
2023/11/18 08:45:17;;;;;;;12.82;7.68;;;4.50;99.90;;;;;;5068332;28;20035;-54
2023/11/18 08:47:44;;;;;;;16.10;8.57;;;4.60;99.90;;;;;;5069983;28;20346;-54
2023/11/18 08:50:12;;;;;;;17.13;8.93;;;4.60;99.90;;;;;;5069961;28;20575;-54
2023/11/18 08:52:43;;;;;;;13.52;8.48;;;4.70;99.90;;;;;;5069769;28;20077;-54
2023/11/18 08:55:17;;;;;;;14.63;8.02;;;4.80;99.90;;;;;;5069590;28;20029;-54
2023/11/18 08:57:58;;;;;;;14.05;8.77;;;5.00;99.90;;;;;;5068991;28;20027;-54
2023/11/18 09:00:47;;;;;;;13.35;8.60;;;5.20;99.90;;;;;;5069549;28;20017;-54
2023/11/18 09:03:17;;;;;;;12.57;7.75;;;5.40;99.90;;;;;;5069519;28;20051;-54
2023/11/18 09:05:57;;;;;;;15.18;8.80;;;5.50;99.90;;;;;;5067717;28;20441;-54
2023/11/18 09:08:32;;;;;;;16.13;7.47;;;5.40;99.90;;;;;;5067715;28;20063;-54
2023/11/18 09:10:58;;;;;;;15.13;7.35;;;5.50;99.90;;;;;;5068406;28;20560;-54
2023/11/18 09:13:28;;;;;;;12.95;7.57;;;5.50;99.90;;;;;;5068128;28;20036;-54
2023/11/18 09:15:56;;;;;;;15.00;7.10;;;5.60;99.90;;;;;;5068316;28;20108;-54
2023/11/18 09:18:22;;;;;;;15.70;7.13;;;5.70;99.90;;;;;;5068470;28;20023;-54
2023/11/18 09:20:48;;;;;;;15.60;9.23;;;5.80;99.90;;;;;;5068285;28;20537;-55
2023/11/18 09:23:15;;;;;;;16.35;8.85;;;5.80;99.90;;;;;;5067965;28;20020;-54
2023/11/18 09:25:42;;;;;;;19.73;10.07;;;5.90;99.90;;;;;;5067770;28;20105;-55
2023/11/18 09:28:10;;;;;;;15.60;9.13;;;6.00;99.90;;;;;;5066571;28;20021;-55
2023/11/18 09:30:38;;;;;;;25.25;13.05;;;6.20;99.90;;;;;;5069085;28;20079;-55
2023/11/18 09:33:13;;;;;;;28.52;15.60;;;6.40;99.90;;;;;;5069232;28;20501;-54
2023/11/18 09:35:40;;;;;;;36.55;19.05;;;6.60;99.90;;;;;;5069815;28;20432;-54
2023/11/18 09:38:06;;;;;;;34.33;19.23;;;6.80;99.90;;;;;;5069460;28;20021;-55
2023/11/18 09:40:37;;;;;;;32.55;19.58;;;7.00;99.90;;;;;;5067897;28;20016;-55
2023/11/18 09:43:09;;;;;;;34.38;20.85;;;7.10;99.90;;;;;;5069481;28;20025;-54
2023/11/18 09:45:35;;;;;;;37.15;21.80;;;7.10;99.90;;;;;;5069380;28;20492;-54
2023/11/18 09:48:06;;;;;;;39.38;21.67;;;7.30;99.90;;;;;;5069179;28;20059;-54
2023/11/18 09:50:33;;;;;;;45.22;24.35;;;7.30;99.90;;;;;;5067798;28;20043;-55
2023/11/18 09:53:05;;;;;;;40.45;23.80;;;7.30;99.90;;;;;;5068486;28;20112;-55
2023/11/18 09:55:42;;;;;;;37.53;22.15;;;7.30;99.90;;;;;;5068381;28;20036;-54
2023/11/18 09:58:15;;;;;;;32.95;18.45;;;7.20;99.90;;;;;;5068161;28;20025;-55
2023/11/18 10:00:41;;;;;;;35.22;20.10;;;7.30;99.90;;;;;;5068378;28;20641;-55
2023/11/18 10:03:09;;;;;;;40.15;23.23;;;7.30;99.90;;;;;;5068371;28;20013;-55
2023/11/18 10:05:36;;;;;;;32.70;19.52;;;7.40;99.90;;;;;;5068012;28;20020;-54
2023/11/18 10:08:05;;;;;;;36.50;21.60;;;8.20;99.90;;;;;;5066288;28;20039;-54
2023/11/18 10:10:36;;;;;;;36.70;21.50;;;8.70;99.90;;;;;;5068082;28;20024;-55
2023/11/18 10:13:04;;;;;;;36.13;21.38;;;9.20;99.90;;;;;;5066632;28;20048;-55
2023/11/18 10:15:31;;;;;;;35.65;20.98;;;9.40;99.90;;;;;;5068211;28;20056;-54
2023/11/18 10:17:59;;;;;;;29.20;19.35;;;10.10;99.90;;;;;;5068332;28;20025;-55
2023/11/18 10:20:47;;;;;;;35.22;21.45;;;11.30;99.90;;;;;;5068368;28;20017;-55
2023/11/18 10:23:20;;;;;;;28.60;19.50;;;12.20;99.90;;;;;;5068305;28;20017;-55
2023/11/18 10:25:58;;;;;;;26.92;19.02;;;12.80;99.90;;;;;;5067855;28;20078;-55
2023/11/18 10:28:36;;;;;;;24.83;17.77;;;13.00;99.90;;;;;;5068149;28;20050;-55
2023/11/18 10:31:06;;;;;;;23.23;16.20;;;13.60;99.10;;;;;;5068168;28;20148;-55
2023/11/18 10:33:36;;;;;;;25.80;17.90;;;14.40;97.30;;;;;;5068512;28;20032;-55
2023/11/18 10:36:03;;;;;;;20.00;15.20;;;14.90;95.30;;;;;;5067395;28;20035;-55
2023/11/18 10:38:30;;;;;;;20.17;15.38;;;15.20;95.30;;;;;;5068170;28;20047;-55
2023/11/18 10:40:58;;;;;;;21.02;13.80;;;15.70;93.70;;;;;;5068055;28;20022;-55
2023/11/18 10:43:24;;;;;;;18.90;14.55;;;16.10;92.80;;;;;;5068355;28;20142;-55
2023/11/18 10:46:13;;;;;;;22.35;16.17;;;15.60;91.40;;;;;;5066617;28;20386;-55
2023/11/18 10:48:48;;;;;;;19.25;14.82;;;15.50;91.20;;;;;;5067635;28;20020;-55
2023/11/18 10:51:23;;;;;;;20.25;16.30;;;15.20;92.20;;;;;;5068488;28;20099;-55
2023/11/18 10:54:03;;;;;;;20.73;17.10;;;15.10;92.40;;;;;;5068531;28;20024;-55
2023/11/18 10:56:29;;;;;;;21.02;16.15;;;15.20;91.70;;;;;;5069370;28;20029;-55
2023/11/18 10:59:07;;;;;;;21.83;15.85;;;15.50;92.00;;;;;;5067449;28;20028;-55
2023/11/18 11:01:42;;;;;;;20.13;15.95;;;15.30;91.50;;;;;;5065609;28;20025;-55
2023/11/18 11:04:10;;;;;;;22.38;17.33;;;14.70;92.60;;;;;;5059987;28;20393;-55
2023/11/18 11:06:41;;;;;;;25.65;18.85;;;13.50;93.60;;;;;;5067207;28;20052;-55
2023/11/18 11:09:16;;;;;;;21.92;16.05;;;12.80;94.70;;;;;;5067554;28;20478;-54
2023/11/18 11:12:04;;;;;;;27.17;19.42;;;13.10;96.50;;;;;;5066044;28;20038;-54
2023/11/18 11:14:46;;;;;;;22.75;17.05;;;13.00;94.90;;;;;;5066629;28;20016;-54
2023/11/18 11:17:25;;;;;;;23.48;16.83;;;12.90;95.20;;;;;;5059547;28;20028;-54
2023/11/18 11:19:57;;;;;;;23.17;17.58;;;13.40;94.90;;;;;;5089621;28;20028;-54
2023/11/18 11:22:38;;;;;;;24.77;17.73;;;14.10;93.40;;;;;;5064828;28;20020;-54
2023/11/18 11:25:24;;;;;;;25.05;18.42;;;14.70;93.60;;;;;;5063353;28;20028;-54
2023/11/18 11:28:03;;;;;;;21.80;15.70;;;15.40;91.80;;;;;;5066920;28;20024;-54
2023/11/18 11:30:32;;;;;;;25.55;16.58;;;15.60;92.60;;;;;;5067321;28;20047;-54
2023/11/18 11:33:22;;;;;;;21.20;16.83;;;16.20;92.00;;;;;;5067326;28;20119;-54
2023/11/18 11:35:57;;;;;;;21.90;16.88;;;16.50;88.90;;;;;;5065533;28;20592;-54
2023/11/18 11:38:24;;;;;;;20.30;15.80;;;16.10;89.80;;;;;;5067548;28;20021;-53
2023/11/18 11:40:52;;;;;;;19.38;14.77;;;16.10;89.50;;;;;;5065667;28;20301;-54
2023/11/18 11:43:21;;;;;;;20.33;15.73;;;15.80;90.80;;;;;;5067219;28;20029;-53
2023/11/18 11:45:57;;;;;;;18.55;13.57;;;16.30;90.30;;;;;;5066820;28;20578;-54
2023/11/18 11:48:27;;;;;;;19.42;15.18;;;16.60;89.60;;;;;;5067650;28;20114;-54
2023/11/18 11:50:54;;;;;;;22.40;16.85;;;15.40;90.50;;;;;;5068201;28;20019;-53
2023/11/18 11:53:26;;;;;;;23.65;16.35;;;14.70;91.30;;;;;;5066748;28;20023;-51
2023/11/18 11:55:53;;;;;;;22.30;15.90;;;14.30;92.20;;;;;;5066703;28;20164;-51
2023/11/18 11:58:38;;;;;;;23.40;15.02;;;13.30;93.40;;;;;;5064691;28;20059;-51
2023/11/18 12:01:32;;;;;;;24.88;18.42;;;12.90;94.30;;;;;;5064107;28;20059;-52
2023/11/18 12:03:58;;;;;;;22.02;15.48;;;12.30;95.70;;;;;;5068841;28;20042;-51
2023/11/18 12:06:26;;;;;;;21.67;16.13;;;12.30;96.10;;;;;;5069324;28;20024;-50
2023/11/18 12:08:56;;;;;;;25.77;17.98;;;12.30;96.50;;;;;;5069313;28;20024;-51
2023/11/18 12:11:22;;;;;;;25.48;17.90;;;12.00;96.60;;;;;;5070047;28;20063;-50
2023/11/18 12:14:09;;;;;;;26.95;17.08;;;11.60;98.00;;;;;;5067301;28;20110;-51
2023/11/18 12:17:10;;;;;;;24.77;15.48;;;11.30;98.60;;;;;;5067003;28;20067;-50
2023/11/18 12:19:58;;;;;;;;;;;11.00;99.30;;;;;;5069738;28;20024;-49
2023/11/18 12:22:26;;;;;;;27.95;17.10;;;10.60;99.90;;;;;;5064129;28;20020;-49
2023/11/18 12:24:57;;;;;;;29.15;17.75;;;10.20;99.90;;;;;;5068452;28;20023;-50
2023/11/18 12:27:54;;;;;;;29.90;18.25;;;10.10;99.90;;;;;;5068800;28;20529;-49
2023/11/18 12:30:22;;;;;;;33.78;19.38;;;9.80;99.90;;;;;;5069198;28;20047;-49
2023/11/18 12:33:39;;;;;;;32.60;18.08;;;9.80;99.90;;;;;;5067717;28;20496;-50
2023/11/18 12:35:50;;;;;;;31.75;19.08;;;9.70;99.90;;;;;;5060876;28;20553;-50
2023/11/18 12:38:46;;;;;;;34.10;20.38;;;9.60;99.90;;;;;;5069261;28;20024;-48
2023/11/18 12:41:33;;;;;;;31.48;19.27;;;9.40;99.90;;;;;;5066354;28;20516;-50
2023/11/18 12:44:31;;;;;;;37.00;21.98;;;9.20;99.90;;;;;;5068365;28;20089;-50
2023/11/18 12:47:37;;;;;;;31.55;20.50;;;9.10;99.90;;;;;;5067840;28;20028;-50
2023/11/18 12:49:56;;;;;;;37.03;21.88;;;8.90;99.90;;;;;;5067806;28;20036;-50
2023/11/18 12:52:23;;;;;;;35.03;20.92;;;8.80;99.90;;;;;;5069505;28;20036;-50